sensor_id;sensor_type;location;lat;lon;timestamp;noise_LAeq;noise_LA_min;noise_LA_max;noise_LA01;noise_LA95
76338;Laerm;20358;50.272;19.026;2023-07-28T05:58:49;114.92;37.36;115.50;;
76338;Laerm;20358;50.272;19.026;2023-07-28T06:02:01;115.14;115.00;115.21;;
76338;Laerm;20358;50.272;19.026;2023-07-28T06:05:44;107.14;35.08;114.46;;
76338;Laerm;20358;50.272;19.026;2023-07-28T06:08:51;114.18;114.15;114.21;;
76338;Laerm;20358;50.272;19.026;2023-07-28T06:09:34;113.83;36.93;114.45;;
76338;Laerm;20358;50.272;19.026;2023-07-28T06:10:14;114.17;114.13;114.20;;
76338;Laerm;20358;50.272;19.026;2023-07-28T06:11:05;114.17;114.10;114.22;;
76338;Laerm;20358;50.272;19.026;2023-07-28T06:11:48;114.17;114.14;114.20;;
76338;Laerm;20358;50.272;19.026;2023-07-28T06:12:24;114.17;114.14;114.20;;
76338;Laerm;20358;50.272;19.026;2023-07-28T06:20:20;52.90;46.74;66.54;;
76338;Laerm;20358;50.272;19.026;2023-07-28T06:26:46;50.70;43.34;57.30;;
76338;Laerm;20358;50.272;19.026;2023-07-28T06:29:56;52.12;44.60;62.29;;
76338;Laerm;20358;50.272;19.026;2023-07-28T06:33:09;53.13;48.02;63.91;;
76338;Laerm;20358;50.272;19.026;2023-07-28T06:36:30;52.34;46.75;60.46;;
76338;Laerm;20358;50.272;19.026;2023-07-28T06:39:52;52.89;45.93;60.15;;
76338;Laerm;20358;50.272;19.026;2023-07-28T06:43:04;53.14;45.57;60.60;;
76338;Laerm;20358;50.272;19.026;2023-07-28T06:46:31;52.76;44.74;62.39;;
76338;Laerm;20358;50.272;19.026;2023-07-28T06:49:57;53.57;46.66;68.33;;
76338;Laerm;20358;50.272;19.026;2023-07-28T06:53:20;55.36;47.18;69.86;;
76338;Laerm;20358;50.272;19.026;2023-07-28T06:56:27;54.37;46.79;64.58;;
76338;Laerm;20358;50.272;19.026;2023-07-28T06:59:36;54.94;45.46;66.35;;
76338;Laerm;20358;50.272;19.026;2023-07-28T07:02:57;53.80;44.85;67.95;;
76338;Laerm;20358;50.272;19.026;2023-07-28T07:06:19;52.90;45.27;63.80;;
76338;Laerm;20358;50.272;19.026;2023-07-28T07:09:42;53.78;45.81;68.06;;
76338;Laerm;20358;50.272;19.026;2023-07-28T07:12:48;53.53;45.61;74.17;;
76338;Laerm;20358;50.272;19.026;2023-07-28T07:15:57;54.35;47.76;64.47;;
76338;Laerm;20358;50.272;19.026;2023-07-28T07:19:21;54.52;46.97;62.54;;
76338;Laerm;20358;50.272;19.026;2023-07-28T07:22:30;54.25;46.11;71.91;;
76338;Laerm;20358;50.272;19.026;2023-07-28T07:25:36;55.50;46.47;70.79;;
76338;Laerm;20358;50.272;19.026;2023-07-28T07:28:59;52.75;47.22;60.94;;
76338;Laerm;20358;50.272;19.026;2023-07-28T07:32:08;56.95;47.90;72.33;;
76338;Laerm;20358;50.272;19.026;2023-07-28T07:35:20;57.94;50.25;72.08;;
76338;Laerm;20358;50.272;19.026;2023-07-28T07:38:26;56.58;49.57;69.88;;
76338;Laerm;20358;50.272;19.026;2023-07-28T07:41:33;54.43;46.86;75.81;;
76338;Laerm;20358;50.272;19.026;2023-07-28T07:44:39;54.54;47.00;65.20;;
76338;Laerm;20358;50.272;19.026;2023-07-28T07:47:49;53.76;45.83;64.23;;
76338;Laerm;20358;50.272;19.026;2023-07-28T07:50:59;53.79;46.50;72.93;;
76338;Laerm;20358;50.272;19.026;2023-07-28T07:54:07;54.94;44.34;74.14;;
76338;Laerm;20358;50.272;19.026;2023-07-28T07:57:13;53.77;45.68;63.56;;
76338;Laerm;20358;50.272;19.026;2023-07-28T08:00:23;51.94;44.33;60.42;;
76338;Laerm;20358;50.272;19.026;2023-07-28T08:03:32;52.85;42.60;61.49;;
76338;Laerm;20358;50.272;19.026;2023-07-28T08:06:43;53.46;45.85;71.71;;
76338;Laerm;20358;50.272;19.026;2023-07-28T08:09:50;53.11;45.25;61.64;;
76338;Laerm;20358;50.272;19.026;2023-07-28T08:12:59;53.76;45.03;64.15;;
76338;Laerm;20358;50.272;19.026;2023-07-28T08:16:09;52.70;43.93;59.22;;
76338;Laerm;20358;50.272;19.026;2023-07-28T08:19:20;52.21;44.29;62.16;;
76338;Laerm;20358;50.272;19.026;2023-07-28T08:22:26;53.04;46.83;62.90;;
76338;Laerm;20358;50.272;19.026;2023-07-28T08:25:36;53.86;46.77;63.02;;
76338;Laerm;20358;50.272;19.026;2023-07-28T08:28:46;51.76;43.60;61.46;;
76338;Laerm;20358;50.272;19.026;2023-07-28T08:31:53;54.19;47.40;62.98;;
76338;Laerm;20358;50.272;19.026;2023-07-28T08:35:04;51.51;42.86;61.19;;
76338;Laerm;20358;50.272;19.026;2023-07-28T08:38:39;53.76;45.48;64.22;;
76338;Laerm;20358;50.272;19.026;2023-07-28T08:41:57;53.96;45.00;68.44;;
76338;Laerm;20358;50.272;19.026;2023-07-28T08:45:08;54.37;46.19;65.07;;
76338;Laerm;20358;50.272;19.026;2023-07-28T08:48:19;53.19;46.18;67.07;;
76338;Laerm;20358;50.272;19.026;2023-07-28T08:51:34;53.83;47.79;68.96;;
76338;Laerm;20358;50.272;19.026;2023-07-28T08:54:41;54.64;46.80;68.46;;
76338;Laerm;20358;50.272;19.026;2023-07-28T08:57:49;53.99;45.38;66.19;;
76338;Laerm;20358;50.272;19.026;2023-07-28T09:00:56;52.48;46.26;58.14;;
76338;Laerm;20358;50.272;19.026;2023-07-28T09:04:10;55.92;45.11;70.50;;
76338;Laerm;20358;50.272;19.026;2023-07-28T09:07:19;53.42;46.91;62.99;;
76338;Laerm;20358;50.272;19.026;2023-07-28T09:10:41;53.01;46.54;62.83;;
76338;Laerm;20358;50.272;19.026;2023-07-28T09:13:47;54.88;45.66;72.21;;
76338;Laerm;20358;50.272;19.026;2023-07-28T09:17:08;54.61;45.49;70.46;;
76338;Laerm;20358;50.272;19.026;2023-07-28T09:20:23;59.18;47.41;81.31;;
76338;Laerm;20358;50.272;19.026;2023-07-28T09:23:37;54.31;45.12;70.00;;
76338;Laerm;20358;50.272;19.026;2023-07-28T09:26:46;52.91;44.04;64.43;;
76338;Laerm;20358;50.272;19.026;2023-07-28T09:29:58;55.06;45.44;70.69;;
76338;Laerm;20358;50.272;19.026;2023-07-28T09:33:08;52.82;45.57;69.72;;
76338;Laerm;20358;50.272;19.026;2023-07-28T09:36:16;53.89;46.53;72.22;;
76338;Laerm;20358;50.272;19.026;2023-07-28T09:39:32;54.97;45.51;70.27;;
76338;Laerm;20358;50.272;19.026;2023-07-28T09:42:46;54.63;46.03;68.51;;
76338;Laerm;20358;50.272;19.026;2023-07-28T09:45:57;54.14;45.79;65.12;;
76338;Laerm;20358;50.272;19.026;2023-07-28T09:49:12;55.09;45.04;73.14;;
76338;Laerm;20358;50.272;19.026;2023-07-28T09:52:26;54.32;45.52;71.23;;
76338;Laerm;20358;50.272;19.026;2023-07-28T09:55:45;53.38;47.07;68.79;;
76338;Laerm;20358;50.272;19.026;2023-07-28T09:58:58;54.49;47.20;61.20;;
76338;Laerm;20358;50.272;19.026;2023-07-28T10:02:10;55.91;47.27;75.74;;
76338;Laerm;20358;50.272;19.026;2023-07-28T10:05:16;54.22;47.04;63.62;;
76338;Laerm;20358;50.272;19.026;2023-07-28T10:08:28;53.34;44.81;65.46;;
76338;Laerm;20358;50.272;19.026;2023-07-28T10:11:38;59.00;49.01;78.01;;
76338;Laerm;20358;50.272;19.026;2023-07-28T10:15:03;54.27;47.19;66.82;;
76338;Laerm;20358;50.272;19.026;2023-07-28T10:18:13;51.63;44.35;58.02;;
76338;Laerm;20358;50.272;19.026;2023-07-28T10:21:31;55.06;47.24;77.12;;
76338;Laerm;20358;50.272;19.026;2023-07-28T10:24:52;56.94;47.62;68.62;;
76338;Laerm;20358;50.272;19.026;2023-07-28T10:28:03;53.42;44.23;65.83;;
76338;Laerm;20358;50.272;19.026;2023-07-28T10:31:30;59.46;46.50;79.06;;
76338;Laerm;20358;50.272;19.026;2023-07-28T10:34:41;53.76;45.95;67.43;;
76338;Laerm;20358;50.272;19.026;2023-07-28T10:37:53;54.59;45.04;71.82;;
76338;Laerm;20358;50.272;19.026;2023-07-28T10:41:15;53.24;46.18;69.47;;
76338;Laerm;20358;50.272;19.026;2023-07-28T10:44:25;53.22;46.31;65.13;;
76338;Laerm;20358;50.272;19.026;2023-07-28T10:47:33;53.37;46.78;62.58;;
76338;Laerm;20358;50.272;19.026;2023-07-28T10:50:42;54.55;48.39;70.71;;
76338;Laerm;20358;50.272;19.026;2023-07-28T10:53:51;53.57;45.37;67.56;;
76338;Laerm;20358;50.272;19.026;2023-07-28T10:57:02;53.56;46.20;64.77;;
76338;Laerm;20358;50.272;19.026;2023-07-28T11:00:17;53.45;46.21;62.72;;
76338;Laerm;20358;50.272;19.026;2023-07-28T11:03:25;51.93;44.90;61.17;;
76338;Laerm;20358;50.272;19.026;2023-07-28T11:06:43;53.10;44.80;71.87;;
76338;Laerm;20358;50.272;19.026;2023-07-28T11:09:52;53.95;46.35;65.74;;
76338;Laerm;20358;50.272;19.026;2023-07-28T11:13:11;54.88;48.71;74.49;;
76338;Laerm;20358;50.272;19.026;2023-07-28T11:16:42;54.63;44.14;68.78;;
76338;Laerm;20358;50.272;19.026;2023-07-28T11:20:01;53.31;45.32;67.88;;
76338;Laerm;20358;50.272;19.026;2023-07-28T11:23:16;56.15;47.16;74.25;;
76338;Laerm;20358;50.272;19.026;2023-07-28T11:26:29;56.11;47.72;82.04;;
76338;Laerm;20358;50.272;19.026;2023-07-28T11:29:44;53.74;45.05;68.33;;
76338;Laerm;20358;50.272;19.026;2023-07-28T11:33:14;54.53;48.32;71.96;;
76338;Laerm;20358;50.272;19.026;2023-07-28T11:36:31;54.65;44.66;76.24;;
76338;Laerm;20358;50.272;19.026;2023-07-28T11:39:43;53.19;44.68;63.14;;
76338;Laerm;20358;50.272;19.026;2023-07-28T11:42:53;56.40;46.57;72.10;;
76338;Laerm;20358;50.272;19.026;2023-07-28T11:46:34;56.58;47.98;77.92;;
76338;Laerm;20358;50.272;19.026;2023-07-28T11:49:56;55.27;47.51;73.41;;
76338;Laerm;20358;50.272;19.026;2023-07-28T11:53:08;54.47;47.46;69.08;;
76338;Laerm;20358;50.272;19.026;2023-07-28T11:56:29;53.64;44.93;73.28;;
76338;Laerm;20358;50.272;19.026;2023-07-28T11:59:43;55.38;46.71;72.50;;
76338;Laerm;20358;50.272;19.026;2023-07-28T12:03:12;56.01;46.35;76.25;;
76338;Laerm;20358;50.272;19.026;2023-07-28T12:07:04;54.91;46.32;70.09;;
76338;Laerm;20358;50.272;19.026;2023-07-28T12:10:11;55.75;48.52;82.43;;
76338;Laerm;20358;50.272;19.026;2023-07-28T12:13:50;54.85;46.41;70.92;;
76338;Laerm;20358;50.272;19.026;2023-07-28T12:17:01;55.88;48.32;70.26;;
76338;Laerm;20358;50.272;19.026;2023-07-28T12:20:11;59.34;49.00;81.99;;
76338;Laerm;20358;50.272;19.026;2023-07-28T12:23:35;56.58;46.12;71.37;;
76338;Laerm;20358;50.272;19.026;2023-07-28T12:26:48;54.65;46.14;65.27;;
76338;Laerm;20358;50.272;19.026;2023-07-28T12:29:56;56.38;44.65;79.57;;
76338;Laerm;20358;50.272;19.026;2023-07-28T12:33:07;52.60;43.74;67.74;;
76338;Laerm;20358;50.272;19.026;2023-07-28T12:36:16;55.89;45.48;84.26;;
76338;Laerm;20358;50.272;19.026;2023-07-28T12:39:48;56.19;46.87;76.67;;
76338;Laerm;20358;50.272;19.026;2023-07-28T12:43:05;53.34;46.63;62.36;;
76338;Laerm;20358;50.272;19.026;2023-07-28T12:46:36;58.25;48.48;78.00;;
76338;Laerm;20358;50.272;19.026;2023-07-28T12:49:44;55.42;48.72;71.43;;
76338;Laerm;20358;50.272;19.026;2023-07-28T12:52:55;58.24;45.38;77.69;;
76338;Laerm;20358;50.272;19.026;2023-07-28T12:56:20;55.90;47.67;68.91;;
76338;Laerm;20358;50.272;19.026;2023-07-28T12:59:33;53.36;45.14;65.26;;
76338;Laerm;20358;50.272;19.026;2023-07-28T13:03:00;54.46;42.28;67.95;;
76338;Laerm;20358;50.272;19.026;2023-07-28T13:06:13;55.53;46.74;66.92;;
76338;Laerm;20358;50.272;19.026;2023-07-28T13:09:19;54.96;45.58;68.43;;
76338;Laerm;20358;50.272;19.026;2023-07-28T13:12:39;54.60;47.08;66.45;;
76338;Laerm;20358;50.272;19.026;2023-07-28T13:15:49;53.93;47.19;67.29;;
76338;Laerm;20358;50.272;19.026;2023-07-28T13:19:01;54.10;47.39;70.89;;
76338;Laerm;20358;50.272;19.026;2023-07-28T13:22:10;57.15;46.24;75.34;;
76338;Laerm;20358;50.272;19.026;2023-07-28T13:25:17;55.18;46.80;80.01;;
76338;Laerm;20358;50.272;19.026;2023-07-28T13:28:27;55.49;45.22;67.96;;
76338;Laerm;20358;50.272;19.026;2023-07-28T13:31:34;53.88;43.92;67.28;;
76338;Laerm;20358;50.272;19.026;2023-07-28T13:34:42;53.75;44.89;70.07;;
76338;Laerm;20358;50.272;19.026;2023-07-28T13:37:49;55.82;47.62;75.46;;
76338;Laerm;20358;50.272;19.026;2023-07-28T13:40:55;55.22;47.28;71.79;;
76338;Laerm;20358;50.272;19.026;2023-07-28T13:44:06;53.47;45.55;62.26;;
76338;Laerm;20358;50.272;19.026;2023-07-28T13:47:16;54.92;47.03;74.95;;
76338;Laerm;20358;50.272;19.026;2023-07-28T13:50:23;55.22;46.76;69.39;;
76338;Laerm;20358;50.272;19.026;2023-07-28T13:53:32;53.84;46.40;65.15;;
76338;Laerm;20358;50.272;19.026;2023-07-28T13:56:43;54.48;44.49;63.82;;
76338;Laerm;20358;50.272;19.026;2023-07-28T13:59:56;54.25;43.89;63.48;;
76338;Laerm;20358;50.272;19.026;2023-07-28T14:03:09;53.18;43.13;63.31;;
76338;Laerm;20358;50.272;19.026;2023-07-28T14:06:15;55.00;47.90;75.16;;
76338;Laerm;20358;50.272;19.026;2023-07-28T14:09:22;55.42;46.91;72.74;;
76338;Laerm;20358;50.272;19.026;2023-07-28T14:12:29;55.95;45.32;74.65;;
76338;Laerm;20358;50.272;19.026;2023-07-28T14:15:38;57.22;47.70;72.75;;
76338;Laerm;20358;50.272;19.026;2023-07-28T14:18:44;57.69;47.27;72.24;;
76338;Laerm;20358;50.272;19.026;2023-07-28T14:21:58;53.70;44.06;69.24;;
76338;Laerm;20358;50.272;19.026;2023-07-28T14:25:05;54.01;46.96;64.83;;
76338;Laerm;20358;50.272;19.026;2023-07-28T14:28:13;53.31;45.08;68.30;;
76338;Laerm;20358;50.272;19.026;2023-07-28T14:31:24;54.84;48.57;68.60;;
76338;Laerm;20358;50.272;19.026;2023-07-28T14:34:31;58.00;48.11;80.25;;
76338;Laerm;20358;50.272;19.026;2023-07-28T14:37:39;55.39;45.31;75.73;;
76338;Laerm;20358;50.272;19.026;2023-07-28T14:40:45;54.89;44.86;67.18;;
76338;Laerm;20358;50.272;19.026;2023-07-28T14:43:54;54.08;44.00;66.31;;
76338;Laerm;20358;50.272;19.026;2023-07-28T14:47:04;55.75;45.81;69.74;;
76338;Laerm;20358;50.272;19.026;2023-07-28T14:50:10;56.84;49.69;67.46;;
76338;Laerm;20358;50.272;19.026;2023-07-28T14:53:35;54.64;45.38;69.06;;
76338;Laerm;20358;50.272;19.026;2023-07-28T14:56:42;56.15;43.91;76.59;;
76338;Laerm;20358;50.272;19.026;2023-07-28T14:59:51;57.13;47.11;65.99;;
76338;Laerm;20358;50.272;19.026;2023-07-28T15:03:00;58.22;53.38;64.93;;
76338;Laerm;20358;50.272;19.026;2023-07-28T15:06:08;57.59;48.11;69.42;;
76338;Laerm;20358;50.272;19.026;2023-07-28T15:09:14;56.44;46.51;69.86;;
76338;Laerm;20358;50.272;19.026;2023-07-28T15:12:26;54.19;45.68;73.18;;
76338;Laerm;20358;50.272;19.026;2023-07-28T15:15:31;53.16;43.68;65.42;;
76338;Laerm;20358;50.272;19.026;2023-07-28T15:18:41;52.91;44.24;61.75;;
76338;Laerm;20358;50.272;19.026;2023-07-28T15:21:51;52.94;43.73;63.40;;
76338;Laerm;20358;50.272;19.026;2023-07-28T15:25:00;52.43;44.37;63.52;;
76338;Laerm;20358;50.272;19.026;2023-07-28T15:28:06;53.88;45.30;65.12;;
76338;Laerm;20358;50.272;19.026;2023-07-28T15:31:13;51.69;41.38;62.47;;
76338;Laerm;20358;50.272;19.026;2023-07-28T15:34:22;53.72;43.71;67.58;;
76338;Laerm;20358;50.272;19.026;2023-07-28T15:37:30;52.74;43.47;66.56;;
76338;Laerm;20358;50.272;19.026;2023-07-28T15:40:37;54.64;45.17;64.13;;
76338;Laerm;20358;50.272;19.026;2023-07-28T15:43:46;53.19;45.01;72.36;;
76338;Laerm;20358;50.272;19.026;2023-07-28T15:46:52;53.04;45.95;64.67;;
76338;Laerm;20358;50.272;19.026;2023-07-28T15:50:08;52.23;43.94;60.86;;
76338;Laerm;20358;50.272;19.026;2023-07-28T15:53:14;52.46;44.42;62.75;;
76338;Laerm;20358;50.272;19.026;2023-07-28T15:56:24;53.13;44.60;63.10;;
76338;Laerm;20358;50.272;19.026;2023-07-28T15:59:32;54.01;46.99;67.83;;
76338;Laerm;20358;50.272;19.026;2023-07-28T16:02:42;53.00;42.38;62.48;;
76338;Laerm;20358;50.272;19.026;2023-07-28T16:05:52;53.63;45.29;62.87;;
76338;Laerm;20358;50.272;19.026;2023-07-28T16:09:00;53.88;45.47;65.27;;
76338;Laerm;20358;50.272;19.026;2023-07-28T16:12:20;54.94;45.21;70.72;;
76338;Laerm;20358;50.272;19.026;2023-07-28T16:15:29;53.40;46.40;67.61;;
76338;Laerm;20358;50.272;19.026;2023-07-28T16:18:39;53.19;42.55;73.43;;
76338;Laerm;20358;50.272;19.026;2023-07-28T16:21:48;54.73;44.12;73.58;;
76338;Laerm;20358;50.272;19.026;2023-07-28T16:24:56;54.84;41.45;74.68;;
76338;Laerm;20358;50.272;19.026;2023-07-28T16:28:04;57.03;41.73;74.83;;
76338;Laerm;20358;50.272;19.026;2023-07-28T16:31:10;53.15;43.24;70.72;;
76338;Laerm;20358;50.272;19.026;2023-07-28T16:34:17;52.93;42.82;63.80;;
76338;Laerm;20358;50.272;19.026;2023-07-28T16:37:26;51.89;41.33;69.73;;
76338;Laerm;20358;50.272;19.026;2023-07-28T16:40:33;52.79;42.20;69.97;;
76338;Laerm;20358;50.272;19.026;2023-07-28T16:43:39;51.43;41.47;61.98;;
76338;Laerm;20358;50.272;19.026;2023-07-28T16:46:46;53.35;45.76;66.20;;
76338;Laerm;20358;50.272;19.026;2023-07-28T16:49:52;51.40;40.09;65.00;;
76338;Laerm;20358;50.272;19.026;2023-07-28T16:53:03;52.21;40.93;74.12;;
76338;Laerm;20358;50.272;19.026;2023-07-28T16:56:09;52.07;41.99;62.19;;
76338;Laerm;20358;50.272;19.026;2023-07-28T16:59:17;53.36;40.09;62.11;;
76338;Laerm;20358;50.272;19.026;2023-07-28T17:02:26;51.70;40.27;61.55;;
76338;Laerm;20358;50.272;19.026;2023-07-28T17:05:32;52.46;44.32;62.68;;
76338;Laerm;20358;50.272;19.026;2023-07-28T17:08:43;52.39;43.19;66.70;;
76338;Laerm;20358;50.272;19.026;2023-07-28T17:11:52;52.88;42.96;68.04;;
76338;Laerm;20358;50.272;19.026;2023-07-28T17:14:57;51.83;42.56;63.82;;
76338;Laerm;20358;50.272;19.026;2023-07-28T17:18:04;53.17;44.36;64.92;;
76338;Laerm;20358;50.272;19.026;2023-07-28T17:21:10;51.60;39.62;62.57;;
76338;Laerm;20358;50.272;19.026;2023-07-28T17:24:19;59.38;42.39;81.18;;
76338;Laerm;20358;50.272;19.026;2023-07-28T17:27:26;50.62;41.52;63.29;;
76338;Laerm;20358;50.272;19.026;2023-07-28T17:30:32;52.73;41.14;64.61;;
76338;Laerm;20358;50.272;19.026;2023-07-28T17:33:38;53.58;40.67;68.98;;
76338;Laerm;20358;50.272;19.026;2023-07-28T17:36:45;51.70;39.86;63.32;;
76338;Laerm;20358;50.272;19.026;2023-07-28T17:39:53;52.96;42.39;70.92;;
76338;Laerm;20358;50.272;19.026;2023-07-28T17:43:00;51.35;42.43;61.09;;
76338;Laerm;20358;50.272;19.026;2023-07-28T17:46:06;51.06;39.57;61.38;;
76338;Laerm;20358;50.272;19.026;2023-07-28T17:49:12;51.27;39.40;62.33;;
76338;Laerm;20358;50.272;19.026;2023-07-28T17:52:19;51.57;42.41;61.57;;
76338;Laerm;20358;50.272;19.026;2023-07-28T17:55:29;51.38;41.40;64.23;;
76338;Laerm;20358;50.272;19.026;2023-07-28T17:58:35;52.21;41.07;68.04;;
76338;Laerm;20358;50.272;19.026;2023-07-28T18:01:41;50.18;39.86;66.61;;
76338;Laerm;20358;50.272;19.026;2023-07-28T18:04:49;51.09;40.01;61.32;;
76338;Laerm;20358;50.272;19.026;2023-07-28T18:07:57;51.75;41.88;63.35;;
76338;Laerm;20358;50.272;19.026;2023-07-28T18:11:06;50.48;40.45;59.93;;
76338;Laerm;20358;50.272;19.026;2023-07-28T18:14:16;50.88;40.70;64.60;;
76338;Laerm;20358;50.272;19.026;2023-07-28T18:17:22;50.54;40.41;65.63;;
76338;Laerm;20358;50.272;19.026;2023-07-28T18:20:33;50.65;41.61;61.45;;
76338;Laerm;20358;50.272;19.026;2023-07-28T18:23:39;51.36;40.57;63.27;;
76338;Laerm;20358;50.272;19.026;2023-07-28T18:26:48;49.86;41.71;60.20;;
76338;Laerm;20358;50.272;19.026;2023-07-28T18:29:54;50.62;42.13;58.70;;
76338;Laerm;20358;50.272;19.026;2023-07-28T18:33:01;49.71;40.21;61.85;;
76338;Laerm;20358;50.272;19.026;2023-07-28T18:36:09;49.17;39.67;62.33;;
76338;Laerm;20358;50.272;19.026;2023-07-28T18:39:20;49.89;40.00;60.59;;
76338;Laerm;20358;50.272;19.026;2023-07-28T18:42:28;49.94;42.63;61.08;;
76338;Laerm;20358;50.272;19.026;2023-07-28T18:45:36;48.89;40.96;60.46;;
76338;Laerm;20358;50.272;19.026;2023-07-28T18:48:44;50.03;40.41;61.89;;
76338;Laerm;20358;50.272;19.026;2023-07-28T18:51:53;52.13;40.42;64.66;;
76338;Laerm;20358;50.272;19.026;2023-07-28T18:54:58;49.69;40.01;59.93;;
76338;Laerm;20358;50.272;19.026;2023-07-28T18:58:14;49.27;39.69;59.45;;
76338;Laerm;20358;50.272;19.026;2023-07-28T19:01:22;49.49;39.67;63.73;;
76338;Laerm;20358;50.272;19.026;2023-07-28T19:04:32;48.69;39.35;60.87;;
76338;Laerm;20358;50.272;19.026;2023-07-28T19:07:38;51.98;43.53;62.29;;
76338;Laerm;20358;50.272;19.026;2023-07-28T19:10:48;49.76;40.88;59.85;;
76338;Laerm;20358;50.272;19.026;2023-07-28T19:13:57;49.48;39.76;59.97;;
76338;Laerm;20358;50.272;19.026;2023-07-28T19:17:04;49.83;40.82;60.45;;
76338;Laerm;20358;50.272;19.026;2023-07-28T19:20:13;48.66;40.91;57.99;;
76338;Laerm;20358;50.272;19.026;2023-07-28T19:23:27;51.10;40.76;64.22;;
76338;Laerm;20358;50.272;19.026;2023-07-28T19:26:35;53.05;40.68;71.46;;
76338;Laerm;20358;50.272;19.026;2023-07-28T19:29:52;49.83;41.05;59.94;;
76338;Laerm;20358;50.272;19.026;2023-07-28T19:32:57;51.05;41.35;66.89;;
76338;Laerm;20358;50.272;19.026;2023-07-28T19:36:07;49.76;41.70;65.06;;
76338;Laerm;20358;50.272;19.026;2023-07-28T19:39:12;55.94;47.87;74.89;;
76338;Laerm;20358;50.272;19.026;2023-07-28T19:42:25;66.55;58.33;82.98;;
76338;Laerm;20358;50.272;19.026;2023-07-28T19:45:34;62.68;55.62;77.58;;
76338;Laerm;20358;50.272;19.026;2023-07-28T19:48:43;61.94;54.90;79.81;;
76338;Laerm;20358;50.272;19.026;2023-07-28T19:51:48;57.95;47.79;77.50;;
76338;Laerm;20358;50.272;19.026;2023-07-28T19:54:55;54.95;45.40;70.85;;
76338;Laerm;20358;50.272;19.026;2023-07-28T19:58:02;52.56;41.74;70.96;;
76338;Laerm;20358;50.272;19.026;2023-07-28T20:01:14;52.81;40.65;76.29;;
76338;Laerm;20358;50.272;19.026;2023-07-28T20:04:20;49.60;39.34;71.12;;
76338;Laerm;20358;50.272;19.026;2023-07-28T20:07:29;51.27;40.73;68.94;;
76338;Laerm;20358;50.272;19.026;2023-07-28T20:10:39;50.01;40.07;69.25;;
76338;Laerm;20358;50.272;19.026;2023-07-28T20:13:50;51.84;41.02;70.94;;
76338;Laerm;20358;50.272;19.026;2023-07-28T20:16:59;49.92;40.60;65.51;;
76338;Laerm;20358;50.272;19.026;2023-07-28T20:20:08;50.46;39.99;65.17;;
76338;Laerm;20358;50.272;19.026;2023-07-28T20:23:17;50.50;40.44;61.20;;
76338;Laerm;20358;50.272;19.026;2023-07-28T20:26:24;50.62;39.61;68.95;;
76338;Laerm;20358;50.272;19.026;2023-07-28T20:29:31;47.52;38.75;60.46;;
76338;Laerm;20358;50.272;19.026;2023-07-28T20:32:44;49.29;38.40;61.35;;
76338;Laerm;20358;50.272;19.026;2023-07-28T20:35:52;49.35;40.46;60.78;;
76338;Laerm;20358;50.272;19.026;2023-07-28T20:38:59;48.11;38.46;59.73;;
76338;Laerm;20358;50.272;19.026;2023-07-28T20:42:07;46.79;39.17;58.72;;
76338;Laerm;20358;50.272;19.026;2023-07-28T20:45:18;47.51;38.94;61.75;;
76338;Laerm;20358;50.272;19.026;2023-07-28T20:48:28;49.62;38.79;64.44;;
76338;Laerm;20358;50.272;19.026;2023-07-28T20:51:35;46.91;38.64;58.70;;
76338;Laerm;20358;50.272;19.026;2023-07-28T20:54:45;50.48;38.84;65.56;;
76338;Laerm;20358;50.272;19.026;2023-07-28T20:57:57;46.96;38.67;61.75;;
76338;Laerm;20358;50.272;19.026;2023-07-28T21:01:07;47.16;39.04;60.24;;
76338;Laerm;20358;50.272;19.026;2023-07-28T21:04:19;53.95;40.68;64.51;;
76338;Laerm;20358;50.272;19.026;2023-07-28T21:07:25;49.35;39.53;61.09;;
76338;Laerm;20358;50.272;19.026;2023-07-28T21:10:32;48.87;39.71;63.59;;
76338;Laerm;20358;50.272;19.026;2023-07-28T21:13:38;46.64;38.92;59.48;;
76338;Laerm;20358;50.272;19.026;2023-07-28T21:16:45;48.62;41.52;59.36;;
76338;Laerm;20358;50.272;19.026;2023-07-28T21:19:55;50.53;39.36;60.05;;
76338;Laerm;20358;50.272;19.026;2023-07-28T21:23:04;48.39;39.15;59.46;;
76338;Laerm;20358;50.272;19.026;2023-07-28T21:26:09;48.07;38.44;62.60;;
76338;Laerm;20358;50.272;19.026;2023-07-28T21:29:18;47.69;38.65;59.27;;
76338;Laerm;20358;50.272;19.026;2023-07-28T21:32:26;45.81;38.60;62.45;;
76338;Laerm;20358;50.272;19.026;2023-07-28T21:35:36;46.84;38.51;58.02;;
76338;Laerm;20358;50.272;19.026;2023-07-28T21:38:42;47.70;39.26;57.88;;
76338;Laerm;20358;50.272;19.026;2023-07-28T21:41:51;47.13;39.09;60.40;;
76338;Laerm;20358;50.272;19.026;2023-07-28T21:44:57;47.98;38.52;59.88;;
76338;Laerm;20358;50.272;19.026;2023-07-28T21:48:12;46.36;38.59;62.17;;
76338;Laerm;20358;50.272;19.026;2023-07-28T21:51:28;47.70;38.69;58.97;;
76338;Laerm;20358;50.272;19.026;2023-07-28T21:54:35;44.67;38.00;58.64;;
76338;Laerm;20358;50.272;19.026;2023-07-28T21:57:41;48.90;38.08;64.65;;
76338;Laerm;20358;50.272;19.026;2023-07-28T22:00:49;46.95;38.22;60.36;;
76338;Laerm;20358;50.272;19.026;2023-07-28T22:03:55;47.77;38.42;59.89;;
76338;Laerm;20358;50.272;19.026;2023-07-28T22:07:05;47.74;38.58;63.80;;
76338;Laerm;20358;50.272;19.026;2023-07-28T22:10:12;46.67;37.66;60.87;;
76338;Laerm;20358;50.272;19.026;2023-07-28T22:13:18;48.82;38.12;63.98;;
76338;Laerm;20358;50.272;19.026;2023-07-28T22:16:26;45.68;38.58;61.75;;
76338;Laerm;20358;50.272;19.026;2023-07-28T22:19:35;47.37;39.08;62.10;;
76338;Laerm;20358;50.272;19.026;2023-07-28T22:22:43;45.32;37.35;58.24;;
76338;Laerm;20358;50.272;19.026;2023-07-28T22:25:52;44.18;37.58;57.20;;
76338;Laerm;20358;50.272;19.026;2023-07-28T22:28:58;49.27;38.27;60.74;;
76338;Laerm;20358;50.272;19.026;2023-07-28T22:32:06;42.29;37.50;58.95;;
76338;Laerm;20358;50.272;19.026;2023-07-28T22:35:13;44.63;38.03;57.69;;
76338;Laerm;20358;50.272;19.026;2023-07-28T22:38:23;46.26;37.69;59.26;;
76338;Laerm;20358;50.272;19.026;2023-07-28T22:41:28;46.25;38.73;62.73;;
76338;Laerm;20358;50.272;19.026;2023-07-28T22:44:35;47.91;38.56;65.07;;
76338;Laerm;20358;50.272;19.026;2023-07-28T22:47:41;46.87;37.98;62.22;;
76338;Laerm;20358;50.272;19.026;2023-07-28T22:50:51;46.86;38.79;62.50;;
76338;Laerm;20358;50.272;19.026;2023-07-28T22:54:00;45.44;37.28;57.49;;
76338;Laerm;20358;50.272;19.026;2023-07-28T22:57:08;47.73;37.32;63.79;;
76338;Laerm;20358;50.272;19.026;2023-07-28T23:00:15;45.16;37.63;60.15;;
76338;Laerm;20358;50.272;19.026;2023-07-28T23:03:29;45.18;37.55;60.02;;
76338;Laerm;20358;50.272;19.026;2023-07-28T23:06:35;47.03;37.93;60.62;;
76338;Laerm;20358;50.272;19.026;2023-07-28T23:09:44;46.08;36.90;59.52;;
76338;Laerm;20358;50.272;19.026;2023-07-28T23:12:51;41.90;37.19;56.37;;
76338;Laerm;20358;50.272;19.026;2023-07-28T23:16:04;44.59;37.16;58.94;;
76338;Laerm;20358;50.272;19.026;2023-07-28T23:19:11;43.74;37.18;58.63;;
76338;Laerm;20358;50.272;19.026;2023-07-28T23:22:18;45.21;36.88;62.33;;
76338;Laerm;20358;50.272;19.026;2023-07-28T23:25:26;45.37;37.84;60.15;;